WetterOnline ( https://www.wetteronline.de )

Wetter aktuell Lützow

Aktuelles Wetter: Schwerin (68m)

6-stündlich | Neueste Meldungen
Ortszeit Temperatur Wetter
Fr, 27.11. 13:00 5.6° C wolkig
Fr, 27.11. 7:00 -0.4° C Nebel
Fr, 27.11. 1:00 2.5° C Nebel
Do, 26.11. 19:00 5.9° C bedeckt
Do, 26.11. 13:00 8.1° C bedeckt
Do, 26.11. 7:00 3.9° C bedeckt
Do, 26.11. 1:00 2.2° C Nebel
Mi, 25.11. 19:00 2.6° C bedeckt
Ortszeit Temperatur Wetter
Fr, 27.11. 14:30 3.9° C Nebel
Fr, 27.11. 14:20 3.9° C Nebel
Fr, 27.11. 14:10 4.1° C Nebel
Fr, 27.11. 14:00 4.5° C Nebel
Fr, 27.11. 13:50 4.5° C Nebel
Fr, 27.11. 13:40 4.9° C leicht bewölkt
Fr, 27.11. 13:30 5.2° C fast wolkenlos
Fr, 27.11. 13:00 5.6° C wolkig
Ortszeit Relative Feuchte Sichtweite
Fr, 27.11. 13:00 92% 20 km
Fr, 27.11. 7:00 99% 100 m
Fr, 27.11. 1:00 100% 0.8 km
Do, 26.11. 19:00 99% 15 km
Do, 26.11. 13:00 99% 2.5 km
Do, 26.11. 7:00 99% 1.7 km
Do, 26.11. 1:00 99% 0.6 km
Mi, 25.11. 19:00 100% 1.6 km
Ortszeit Relative Feuchte Sichtweite
Fr, 27.11. 14:30 100% 0.2 km
Fr, 27.11. 14:20 100% -
Fr, 27.11. 14:10 99% -
Fr, 27.11. 14:00 97% 0.2 km
Fr, 27.11. 13:50 97% -
Fr, 27.11. 13:40 95% -
Fr, 27.11. 13:30 93% 17 km
Fr, 27.11. 13:00 92% 20 km
Ortszeit Niederschlagsmenge Niederschlagsart
Fr, 27.11. 13:00 0.0 l/m2 in 6 Std. -
Fr, 27.11. 7:00 0.0 l/m2 in 12 Std. -
Fr, 27.11. 1:00 0.0 l/m2 in 6 Std. -
Do, 26.11. 19:00 0.4 l/m2 in 12 Std. Regen
Do, 26.11. 13:00 0.4 l/m2 in 6 Std. Regen
Do, 26.11. 7:00 0.0 l/m2 in 12 Std. -
Do, 26.11. 1:00 0.0 l/m2 in 6 Std. -
Mi, 25.11. 19:00 0.0 l/m2 in 12 Std. -
Ortszeit Niederschlagsmenge Niederschlagsart
Fr, 27.11. 14:30 0.0 l/m2 in 1 Std. -
Fr, 27.11. 14:20 keine Meldung -
Fr, 27.11. 14:10 keine Meldung -
Fr, 27.11. 14:00 0.0 l/m2 in 1 Std. -
Fr, 27.11. 13:50 keine Meldung -
Fr, 27.11. 13:40 keine Meldung -
Fr, 27.11. 13:30 0.0 l/m2 in 1 Std. -
Fr, 27.11. 13:00 0.0 l/m2 in 1 Std. -
Ortszeit Stärke Spitze Richtung
km/h Bft. km/h Grad Sektor
Fr, 27.11. 13:00 4 1 7 130° SO
Fr, 27.11. 7:00 4 1 11 230° SW
Fr, 27.11. 1:00 9 2 15 230° SW
Do, 26.11. 19:00 9 2 26 250° W
Do, 26.11. 13:00 14 3 29 250° W
Do, 26.11. 7:00 14 3 25 210° SW
Do, 26.11. 1:00 13 3 28 210° SW
Mi, 25.11. 19:00 11 2 25 200° S
Ortszeit Stärke Spitze Richtung
km/h Bft. km/h Grad Sektor
Fr, 27.11. 14:30 4 1 7 100° O
Fr, 27.11. 14:20 4 1 - 100° O
Fr, 27.11. 14:10 6 1 - 100° O
Fr, 27.11. 14:00 6 1 9 110° O
Fr, 27.11. 13:50 6 1 - 110° O
Fr, 27.11. 13:40 7 2 - 100° O
Fr, 27.11. 13:30 4 1 7 110° O
Fr, 27.11. 13:00 4 1 7 130° SO
Ortszeit Untergrenze Bedeckung Gattung
total tief tief mittel hoch
Fr, 27.11. 13:00 30 m 7/8 7/8 - - -
Fr, 27.11. 7:00 <30 m 8/8 0/8 - - -
Fr, 27.11. 1:00 <30 m 8/8 0/8 - - -
Do, 26.11. 19:00 4200 m 8/8 8/8 - - -
Do, 26.11. 13:00 60 m 8/8 8/8 - - -
Do, 26.11. 7:00 30 m 8/8 8/8 - - -
Do, 26.11. 1:00 <30 m 8/8 0/8 - - -
Mi, 25.11. 19:00 30 m 8/8 8/8 - - -
Ortszeit Bedeckungsgrad in Achtel und Wolkenuntergrenze
Fr, 27.11. 14:30 8(<30m)
Fr, 27.11. 14:20 8(<30m)
Fr, 27.11. 14:10 8(<30m)
Fr, 27.11. 14:00 6(<30m)
Fr, 27.11. 13:50 6(<30m)
Fr, 27.11. 13:40 3(30m)
Fr, 27.11. 13:30 1(60m)
Fr, 27.11. 13:00 7(30m)
Ortszeit Luftdruck NN (hPa) Tendenz (hPa in 3 Std.)
Fr, 27.11. 13:00 1023 0,0
Fr, 27.11. 7:00 1022 + 0,4
Fr, 27.11. 1:00 1021 + 0,4
Do, 26.11. 19:00 1020 + 0,9
Do, 26.11. 13:00 1018 + 0,3
Do, 26.11. 7:00 1018 - 0,2
Do, 26.11. 1:00 1018 - 0,2
Mi, 25.11. 19:00 1018 + 0,2
Ortszeit Luftdruck NN (hPa) Tendenz (hPa in 3 Std.)
Fr, 27.11. 14:30 1023 - 0,3
Fr, 27.11. 14:20 1023 keine Meldung
Fr, 27.11. 14:10 1023 keine Meldung
Fr, 27.11. 14:00 1022 - 0,3
Fr, 27.11. 13:50 1022 keine Meldung
Fr, 27.11. 13:40 1022 keine Meldung
Fr, 27.11. 13:30 1023 - 0,2
Fr, 27.11. 13:00 1023 0,0
Ortszeit Schneehöhe (cm)
Fr, 27.11. 13:00 0
Fr, 27.11. 7:00 0
Fr, 27.11. 1:00 0
Do, 26.11. 19:00 0
Do, 26.11. 13:00 0
Do, 26.11. 7:00 0
Do, 26.11. 1:00 0
Mi, 25.11. 19:00 0
Ortszeit Schneehöhe (cm)
Fr, 27.11. 14:30 0
Fr, 27.11. 14:20 0
Fr, 27.11. 14:10 0
Fr, 27.11. 14:00 0
Fr, 27.11. 13:50 0
Fr, 27.11. 13:40 0
Fr, 27.11. 13:30 0
Fr, 27.11. 13:00 0
Link zu dieser Seite / Seite empfehlen

Das Wetter in ...